sensor_id;sensor_type;location;lat;lon;timestamp;P1;durP1;ratioP1;P2;durP2;ratioP2
7957;SDS011;4024;52.172;5.378;2022-12-10T00:00:49;55.00;;;30.63;;
7957;SDS011;4024;52.172;5.378;2022-12-10T00:03:14;57.97;;;32.77;;
7957;SDS011;4024;52.172;5.378;2022-12-10T00:05:40;54.23;;;30.77;;
7957;SDS011;4024;52.172;5.378;2022-12-10T00:08:05;57.07;;;31.73;;
7957;SDS011;4024;52.172;5.378;2022-12-10T00:10:31;59.33;;;31.83;;
7957;SDS011;4024;52.172;5.378;2022-12-10T00:12:56;63.73;;;32.03;;
7957;SDS011;4024;52.172;5.378;2022-12-10T00:15:22;54.30;;;31.33;;
7957;SDS011;4024;52.172;5.378;2022-12-10T00:17:48;59.00;;;33.63;;
7957;SDS011;4024;52.172;5.378;2022-12-10T00:20:13;57.10;;;32.23;;
7957;SDS011;4024;52.172;5.378;2022-12-10T00:22:39;61.00;;;33.77;;
7957;SDS011;4024;52.172;5.378;2022-12-10T00:25:05;63.57;;;33.13;;
7957;SDS011;4024;52.172;5.378;2022-12-10T00:27:30;64.53;;;31.83;;
7957;SDS011;4024;52.172;5.378;2022-12-10T00:29:56;58.00;;;33.17;;
7957;SDS011;4024;52.172;5.378;2022-12-10T00:32:22;66.03;;;33.87;;
7957;SDS011;4024;52.172;5.378;2022-12-10T00:34:47;63.60;;;33.60;;
7957;SDS011;4024;52.172;5.378;2022-12-10T00:37:13;66.47;;;34.27;;
7957;SDS011;4024;52.172;5.378;2022-12-10T00:39:38;62.27;;;34.40;;
7957;SDS011;4024;52.172;5.378;2022-12-10T00:42:04;61.00;;;33.17;;
7957;SDS011;4024;52.172;5.378;2022-12-10T00:44:29;63.33;;;33.03;;
7957;SDS011;4024;52.172;5.378;2022-12-10T00:46:55;64.23;;;34.10;;
7957;SDS011;4024;52.172;5.378;2022-12-10T00:49:21;64.63;;;32.43;;
7957;SDS011;4024;52.172;5.378;2022-12-10T00:51:49;63.63;;;33.80;;
7957;SDS011;4024;52.172;5.378;2022-12-10T00:54:14;60.13;;;32.40;;
7957;SDS011;4024;52.172;5.378;2022-12-10T00:56:40;60.23;;;31.73;;
7957;SDS011;4024;52.172;5.378;2022-12-10T00:59:06;58.53;;;33.27;;
7957;SDS011;4024;52.172;5.378;2022-12-10T01:01:33;64.37;;;34.57;;
7957;SDS011;4024;52.172;5.378;2022-12-10T01:04:02;65.13;;;34.10;;
7957;SDS011;4024;52.172;5.378;2022-12-10T01:06:33;57.23;;;31.03;;
7957;SDS011;4024;52.172;5.378;2022-12-10T01:09:03;63.37;;;34.00;;
7957;SDS011;4024;52.172;5.378;2022-12-10T01:11:32;62.70;;;33.23;;
7957;SDS011;4024;52.172;5.378;2022-12-10T01:14:00;63.90;;;33.83;;
7957;SDS011;4024;52.172;5.378;2022-12-10T01:16:26;60.67;;;33.47;;
7957;SDS011;4024;52.172;5.378;2022-12-10T01:18:53;67.50;;;34.60;;
7957;SDS011;4024;52.172;5.378;2022-12-10T01:21:23;69.10;;;33.50;;
7957;SDS011;4024;52.172;5.378;2022-12-10T01:23:51;67.30;;;33.20;;
7957;SDS011;4024;52.172;5.378;2022-12-10T01:26:19;63.07;;;33.27;;
7957;SDS011;4024;52.172;5.378;2022-12-10T01:28:46;64.07;;;34.97;;
7957;SDS011;4024;52.172;5.378;2022-12-10T01:31:17;61.50;;;33.57;;
7957;SDS011;4024;52.172;5.378;2022-12-10T01:33:45;63.53;;;32.57;;
7957;SDS011;4024;52.172;5.378;2022-12-10T01:36:13;67.90;;;33.23;;
7957;SDS011;4024;52.172;5.378;2022-12-10T01:38:49;64.60;;;33.53;;
7957;SDS011;4024;52.172;5.378;2022-12-10T01:41:17;67.83;;;34.30;;
7957;SDS011;4024;52.172;5.378;2022-12-10T01:43:52;72.00;;;33.70;;
7957;SDS011;4024;52.172;5.378;2022-12-10T01:46:30;65.40;;;33.10;;
7957;SDS011;4024;52.172;5.378;2022-12-10T01:48:58;64.53;;;33.50;;
7957;SDS011;4024;52.172;5.378;2022-12-10T01:51:27;63.37;;;33.37;;
7957;SDS011;4024;52.172;5.378;2022-12-10T01:53:55;74.77;;;35.87;;
7957;SDS011;4024;52.172;5.378;2022-12-10T01:56:21;64.90;;;33.50;;
7957;SDS011;4024;52.172;5.378;2022-12-10T01:58:48;66.90;;;33.40;;
7957;SDS011;4024;52.172;5.378;2022-12-10T02:01:21;73.00;;;34.30;;
7957;SDS011;4024;52.172;5.378;2022-12-10T02:09:54;72.10;;;34.57;;
7957;SDS011;4024;52.172;5.378;2022-12-10T02:12:33;73.97;;;33.73;;
7957;SDS011;4024;52.172;5.378;2022-12-10T02:15:16;69.13;;;32.67;;
7957;SDS011;4024;52.172;5.378;2022-12-10T02:20:29;78.87;;;33.90;;
7957;SDS011;4024;52.172;5.378;2022-12-10T02:23:03;101.10;;;34.33;;
7957;SDS011;4024;52.172;5.378;2022-12-10T02:28:41;84.30;;;35.73;;
7957;SDS011;4024;52.172;5.378;2022-12-10T02:31:17;100.70;;;34.33;;
7957;SDS011;4024;52.172;5.378;2022-12-10T02:33:49;75.80;;;34.20;;
7957;SDS011;4024;52.172;5.378;2022-12-10T02:36:18;83.50;;;33.10;;
7957;SDS011;4024;52.172;5.378;2022-12-10T02:38:46;68.50;;;33.23;;
7957;SDS011;4024;52.172;5.378;2022-12-10T02:41:16;74.70;;;32.00;;
7957;SDS011;4024;52.172;5.378;2022-12-10T02:43:53;79.57;;;34.80;;
7957;SDS011;4024;52.172;5.378;2022-12-10T02:46:22;73.23;;;35.50;;
7957;SDS011;4024;52.172;5.378;2022-12-10T02:48:49;85.07;;;33.97;;
7957;SDS011;4024;52.172;5.378;2022-12-10T02:51:16;71.83;;;33.77;;
7957;SDS011;4024;52.172;5.378;2022-12-10T02:53:42;79.30;;;33.83;;
7957;SDS011;4024;52.172;5.378;2022-12-10T03:04:40;68.63;;;31.33;;
7957;SDS011;4024;52.172;5.378;2022-12-10T03:07:10;90.53;;;34.37;;
7957;SDS011;4024;52.172;5.378;2022-12-10T03:09:45;81.90;;;33.20;;
7957;SDS011;4024;52.172;5.378;2022-12-10T03:12:18;89.30;;;34.67;;
7957;SDS011;4024;52.172;5.378;2022-12-10T03:14:57;91.10;;;32.37;;
7957;SDS011;4024;52.172;5.378;2022-12-10T03:17:25;75.80;;;31.70;;
7957;SDS011;4024;52.172;5.378;2022-12-10T03:19:53;128.47;;;35.23;;
7957;SDS011;4024;52.172;5.378;2022-12-10T03:22:22;70.87;;;32.03;;
7957;SDS011;4024;52.172;5.378;2022-12-10T03:24:47;76.50;;;29.73;;
7957;SDS011;4024;52.172;5.378;2022-12-10T03:27:13;84.37;;;32.10;;
7957;SDS011;4024;52.172;5.378;2022-12-10T03:29:44;93.93;;;30.93;;
7957;SDS011;4024;52.172;5.378;2022-12-10T03:32:12;88.53;;;31.03;;
7957;SDS011;4024;52.172;5.378;2022-12-10T03:34:39;83.87;;;32.70;;
7957;SDS011;4024;52.172;5.378;2022-12-10T03:37:06;60.10;;;29.30;;
7957;SDS011;4024;52.172;5.378;2022-12-10T03:39:31;99.23;;;31.00;;
7957;SDS011;4024;52.172;5.378;2022-12-10T03:41:57;95.73;;;33.50;;
7957;SDS011;4024;52.172;5.378;2022-12-10T03:44:27;86.03;;;32.03;;
7957;SDS011;4024;52.172;5.378;2022-12-10T03:46:57;103.77;;;32.07;;
7957;SDS011;4024;52.172;5.378;2022-12-10T03:49:23;91.67;;;33.80;;
7957;SDS011;4024;52.172;5.378;2022-12-10T03:51:50;74.87;;;30.33;;
7957;SDS011;4024;52.172;5.378;2022-12-10T03:54:16;106.67;;;33.37;;
7957;SDS011;4024;52.172;5.378;2022-12-10T03:56:41;92.20;;;30.53;;
7957;SDS011;4024;52.172;5.378;2022-12-10T03:59:07;89.90;;;32.23;;
7957;SDS011;4024;52.172;5.378;2022-12-10T04:01:33;108.17;;;33.40;;
7957;SDS011;4024;52.172;5.378;2022-12-10T04:03:58;104.17;;;31.13;;
7957;SDS011;4024;52.172;5.378;2022-12-10T04:06:24;67.67;;;29.57;;
7957;SDS011;4024;52.172;5.378;2022-12-10T04:08:51;92.17;;;31.80;;
7957;SDS011;4024;52.172;5.378;2022-12-10T04:11:17;87.53;;;31.83;;
7957;SDS011;4024;52.172;5.378;2022-12-10T04:13:43;102.70;;;31.50;;
7957;SDS011;4024;52.172;5.378;2022-12-10T04:16:27;100.10;;;31.47;;
7957;SDS011;4024;52.172;5.378;2022-12-10T04:18:58;102.10;;;33.00;;
7957;SDS011;4024;52.172;5.378;2022-12-10T04:21:26;73.00;;;31.10;;
7957;SDS011;4024;52.172;5.378;2022-12-10T04:24:11;76.07;;;29.53;;
7957;SDS011;4024;52.172;5.378;2022-12-10T04:26:56;83.33;;;30.27;;
7957;SDS011;4024;52.172;5.378;2022-12-10T04:29:23;73.83;;;31.57;;
7957;SDS011;4024;52.172;5.378;2022-12-10T04:31:51;80.67;;;30.60;;
7957;SDS011;4024;52.172;5.378;2022-12-10T04:34:17;70.73;;;30.50;;
7957;SDS011;4024;52.172;5.378;2022-12-10T04:36:43;59.33;;;28.53;;
7957;SDS011;4024;52.172;5.378;2022-12-10T04:39:08;63.90;;;28.03;;
7957;SDS011;4024;52.172;5.378;2022-12-10T04:41:36;75.43;;;28.70;;
7957;SDS011;4024;52.172;5.378;2022-12-10T04:44:06;71.40;;;28.97;;
7957;SDS011;4024;52.172;5.378;2022-12-10T04:46:32;68.30;;;28.13;;
7957;SDS011;4024;52.172;5.378;2022-12-10T04:48:58;79.00;;;28.47;;
7957;SDS011;4024;52.172;5.378;2022-12-10T04:51:23;61.53;;;28.60;;
7957;SDS011;4024;52.172;5.378;2022-12-10T04:53:49;59.80;;;28.63;;
7957;SDS011;4024;52.172;5.378;2022-12-10T04:56:15;62.17;;;28.73;;
7957;SDS011;4024;52.172;5.378;2022-12-10T04:58:40;76.03;;;29.73;;
7957;SDS011;4024;52.172;5.378;2022-12-10T05:01:07;67.20;;;28.90;;
7957;SDS011;4024;52.172;5.378;2022-12-10T05:03:34;65.70;;;29.03;;
7957;SDS011;4024;52.172;5.378;2022-12-10T05:06:07;69.03;;;29.30;;
7957;SDS011;4024;52.172;5.378;2022-12-10T05:08:36;63.93;;;28.63;;
7957;SDS011;4024;52.172;5.378;2022-12-10T05:11:04;62.20;;;30.27;;
7957;SDS011;4024;52.172;5.378;2022-12-10T05:13:31;69.60;;;31.20;;
7957;SDS011;4024;52.172;5.378;2022-12-10T05:15:57;69.80;;;29.23;;
7957;SDS011;4024;52.172;5.378;2022-12-10T05:18:25;63.23;;;28.93;;
7957;SDS011;4024;52.172;5.378;2022-12-10T05:20:51;71.83;;;29.10;;
7957;SDS011;4024;52.172;5.378;2022-12-10T05:23:16;78.20;;;30.73;;
7957;SDS011;4024;52.172;5.378;2022-12-10T05:28:36;87.00;;;32.07;;
7957;SDS011;4024;52.172;5.378;2022-12-10T05:31:04;79.47;;;31.33;;
7957;SDS011;4024;52.172;5.378;2022-12-10T05:33:30;65.23;;;30.70;;
7957;SDS011;4024;52.172;5.378;2022-12-10T05:35:57;84.13;;;30.20;;
7957;SDS011;4024;52.172;5.378;2022-12-10T05:38:25;79.50;;;32.80;;
7957;SDS011;4024;52.172;5.378;2022-12-10T05:40:53;60.70;;;30.27;;
7957;SDS011;4024;52.172;5.378;2022-12-10T05:43:19;81.30;;;32.07;;
7957;SDS011;4024;52.172;5.378;2022-12-10T05:45:45;74.03;;;31.90;;
7957;SDS011;4024;52.172;5.378;2022-12-10T05:48:11;70.93;;;33.13;;
7957;SDS011;4024;52.172;5.378;2022-12-10T05:50:38;80.00;;;31.47;;
7957;SDS011;4024;52.172;5.378;2022-12-10T05:53:04;82.53;;;33.27;;
7957;SDS011;4024;52.172;5.378;2022-12-10T05:55:29;77.53;;;31.07;;
7957;SDS011;4024;52.172;5.378;2022-12-10T05:57:57;57.17;;;30.40;;
7957;SDS011;4024;52.172;5.378;2022-12-10T06:00:24;70.50;;;32.67;;
7957;SDS011;4024;52.172;5.378;2022-12-10T06:02:53;59.10;;;30.23;;
7957;SDS011;4024;52.172;5.378;2022-12-10T06:05:19;51.70;;;27.90;;
7957;SDS011;4024;52.172;5.378;2022-12-10T06:07:45;72.70;;;30.70;;
7957;SDS011;4024;52.172;5.378;2022-12-10T06:10:11;66.03;;;31.10;;
7957;SDS011;4024;52.172;5.378;2022-12-10T06:12:37;61.23;;;31.63;;
7957;SDS011;4024;52.172;5.378;2022-12-10T06:15:04;78.13;;;31.77;;
7957;SDS011;4024;52.172;5.378;2022-12-10T06:17:30;68.17;;;30.70;;
7957;SDS011;4024;52.172;5.378;2022-12-10T06:19:56;61.13;;;28.93;;
7957;SDS011;4024;52.172;5.378;2022-12-10T06:22:22;65.37;;;30.93;;
7957;SDS011;4024;52.172;5.378;2022-12-10T06:24:48;59.97;;;30.50;;
7957;SDS011;4024;52.172;5.378;2022-12-10T06:27:13;63.80;;;29.13;;
7957;SDS011;4024;52.172;5.378;2022-12-10T06:29:39;66.30;;;30.83;;
7957;SDS011;4024;52.172;5.378;2022-12-10T06:32:05;59.33;;;30.10;;
7957;SDS011;4024;52.172;5.378;2022-12-10T06:34:31;55.60;;;28.93;;
7957;SDS011;4024;52.172;5.378;2022-12-10T06:36:57;54.97;;;27.57;;
7957;SDS011;4024;52.172;5.378;2022-12-10T06:39:22;56.00;;;26.87;;
7957;SDS011;4024;52.172;5.378;2022-12-10T06:41:48;53.13;;;27.87;;
7957;SDS011;4024;52.172;5.378;2022-12-10T06:44:13;52.03;;;24.77;;
7957;SDS011;4024;52.172;5.378;2022-12-10T06:46:39;60.33;;;28.33;;
7957;SDS011;4024;52.172;5.378;2022-12-10T06:49:06;49.97;;;26.27;;
7957;SDS011;4024;52.172;5.378;2022-12-10T06:51:32;61.00;;;26.83;;
7957;SDS011;4024;52.172;5.378;2022-12-10T06:53:58;53.67;;;26.70;;
7957;SDS011;4024;52.172;5.378;2022-12-10T06:56:23;48.83;;;24.50;;
7957;SDS011;4024;52.172;5.378;2022-12-10T06:58:49;44.63;;;25.43;;
7957;SDS011;4024;52.172;5.378;2022-12-10T07:03:47;52.90;;;26.50;;
7957;SDS011;4024;52.172;5.378;2022-12-10T07:06:14;55.70;;;27.83;;
7957;SDS011;4024;52.172;5.378;2022-12-10T07:08:40;56.83;;;27.40;;
7957;SDS011;4024;52.172;5.378;2022-12-10T07:11:06;55.90;;;27.20;;
7957;SDS011;4024;52.172;5.378;2022-12-10T07:13:33;61.97;;;28.77;;
7957;SDS011;4024;52.172;5.378;2022-12-10T07:15:59;50.83;;;28.50;;
7957;SDS011;4024;52.172;5.378;2022-12-10T07:18:25;54.60;;;26.83;;
7957;SDS011;4024;52.172;5.378;2022-12-10T07:20:52;52.20;;;25.87;;
7957;SDS011;4024;52.172;5.378;2022-12-10T07:23:17;47.83;;;26.23;;
7957;SDS011;4024;52.172;5.378;2022-12-10T07:25:44;59.93;;;28.93;;
7957;SDS011;4024;52.172;5.378;2022-12-10T07:28:10;55.73;;;28.90;;
7957;SDS011;4024;52.172;5.378;2022-12-10T07:30:35;49.83;;;27.80;;
7957;SDS011;4024;52.172;5.378;2022-12-10T07:33:01;61.77;;;29.63;;
7957;SDS011;4024;52.172;5.378;2022-12-10T07:35:27;62.97;;;29.43;;
7957;SDS011;4024;52.172;5.378;2022-12-10T07:37:52;63.20;;;28.33;;
7957;SDS011;4024;52.172;5.378;2022-12-10T07:40:18;68.23;;;30.07;;
7957;SDS011;4024;52.172;5.378;2022-12-10T07:42:43;58.90;;;28.80;;
7957;SDS011;4024;52.172;5.378;2022-12-10T07:45:09;61.07;;;29.50;;
7957;SDS011;4024;52.172;5.378;2022-12-10T07:47:36;59.90;;;29.03;;
7957;SDS011;4024;52.172;5.378;2022-12-10T07:50:03;66.33;;;31.27;;
7957;SDS011;4024;52.172;5.378;2022-12-10T07:52:29;58.03;;;30.67;;
7957;SDS011;4024;52.172;5.378;2022-12-10T07:54:54;63.57;;;29.83;;
7957;SDS011;4024;52.172;5.378;2022-12-10T07:57:20;66.63;;;31.10;;
7957;SDS011;4024;52.172;5.378;2022-12-10T07:59:46;66.93;;;30.23;;
7957;SDS011;4024;52.172;5.378;2022-12-10T08:02:12;61.67;;;29.87;;
7957;SDS011;4024;52.172;5.378;2022-12-10T08:04:38;62.80;;;31.00;;
7957;SDS011;4024;52.172;5.378;2022-12-10T08:07:03;65.07;;;29.10;;
7957;SDS011;4024;52.172;5.378;2022-12-10T08:09:29;58.27;;;28.33;;
7957;SDS011;4024;52.172;5.378;2022-12-10T08:11:55;64.77;;;30.77;;
7957;SDS011;4024;52.172;5.378;2022-12-10T08:14:20;67.33;;;30.40;;
7957;SDS011;4024;52.172;5.378;2022-12-10T08:16:46;58.63;;;29.80;;
7957;SDS011;4024;52.172;5.378;2022-12-10T08:19:11;64.23;;;29.70;;
7957;SDS011;4024;52.172;5.378;2022-12-10T08:21:37;73.60;;;30.87;;
7957;SDS011;4024;52.172;5.378;2022-12-10T08:24:03;81.90;;;30.03;;
7957;SDS011;4024;52.172;5.378;2022-12-10T08:26:30;64.07;;;30.00;;
7957;SDS011;4024;52.172;5.378;2022-12-10T08:28:57;62.43;;;30.70;;
7957;SDS011;4024;52.172;5.378;2022-12-10T08:31:24;61.33;;;29.40;;
7957;SDS011;4024;52.172;5.378;2022-12-10T08:33:51;63.50;;;30.60;;
7957;SDS011;4024;52.172;5.378;2022-12-10T08:36:17;72.40;;;30.97;;
7957;SDS011;4024;52.172;5.378;2022-12-10T08:38:43;58.93;;;29.93;;
7957;SDS011;4024;52.172;5.378;2022-12-10T08:41:11;64.40;;;28.97;;
7957;SDS011;4024;52.172;5.378;2022-12-10T08:43:38;69.13;;;30.10;;
7957;SDS011;4024;52.172;5.378;2022-12-10T08:46:04;66.43;;;28.30;;
7957;SDS011;4024;52.172;5.378;2022-12-10T08:48:30;68.60;;;29.27;;
7957;SDS011;4024;52.172;5.378;2022-12-10T08:50:56;65.03;;;29.90;;
7957;SDS011;4024;52.172;5.378;2022-12-10T08:53:22;71.10;;;29.00;;
7957;SDS011;4024;52.172;5.378;2022-12-10T08:55:51;61.33;;;29.67;;
7957;SDS011;4024;52.172;5.378;2022-12-10T08:58:17;56.10;;;27.47;;
7957;SDS011;4024;52.172;5.378;2022-12-10T09:00:44;54.60;;;29.10;;
7957;SDS011;4024;52.172;5.378;2022-12-10T09:03:10;65.23;;;28.63;;
7957;SDS011;4024;52.172;5.378;2022-12-10T09:05:35;53.50;;;27.60;;
7957;SDS011;4024;52.172;5.378;2022-12-10T09:08:02;60.13;;;28.87;;
7957;SDS011;4024;52.172;5.378;2022-12-10T09:10:27;61.80;;;29.27;;
7957;SDS011;4024;52.172;5.378;2022-12-10T09:12:53;61.70;;;28.33;;
7957;SDS011;4024;52.172;5.378;2022-12-10T09:15:19;65.43;;;28.80;;
7957;SDS011;4024;52.172;5.378;2022-12-10T09:17:44;58.80;;;27.53;;
7957;SDS011;4024;52.172;5.378;2022-12-10T09:20:10;54.17;;;27.57;;
7957;SDS011;4024;52.172;5.378;2022-12-10T09:22:36;63.27;;;30.07;;
7957;SDS011;4024;52.172;5.378;2022-12-10T09:25:05;58.07;;;27.53;;
7957;SDS011;4024;52.172;5.378;2022-12-10T09:27:32;58.40;;;28.27;;
7957;SDS011;4024;52.172;5.378;2022-12-10T09:29:58;60.20;;;29.60;;
7957;SDS011;4024;52.172;5.378;2022-12-10T09:32:24;59.57;;;25.60;;
7957;SDS011;4024;52.172;5.378;2022-12-10T09:34:53;68.37;;;27.37;;
7957;SDS011;4024;52.172;5.378;2022-12-10T09:37:18;58.03;;;25.90;;
7957;SDS011;4024;52.172;5.378;2022-12-10T09:39:44;63.27;;;25.93;;
7957;SDS011;4024;52.172;5.378;2022-12-10T09:50:32;49.20;;;24.13;;
7957;SDS011;4024;52.172;5.378;2022-12-10T09:53:03;48.90;;;23.63;;
7957;SDS011;4024;52.172;5.378;2022-12-10T09:55:40;48.37;;;24.30;;
7957;SDS011;4024;52.172;5.378;2022-12-10T09:58:13;42.17;;;22.50;;
7957;SDS011;4024;52.172;5.378;2022-12-10T10:00:47;48.70;;;23.70;;
7957;SDS011;4024;52.172;5.378;2022-12-10T10:03:16;51.73;;;23.73;;
7957;SDS011;4024;52.172;5.378;2022-12-10T10:06:00;49.97;;;25.07;;
7957;SDS011;4024;52.172;5.378;2022-12-10T10:08:33;48.53;;;24.83;;
7957;SDS011;4024;52.172;5.378;2022-12-10T10:11:03;44.87;;;22.63;;
7957;SDS011;4024;52.172;5.378;2022-12-10T10:13:36;56.40;;;25.53;;
7957;SDS011;4024;52.172;5.378;2022-12-10T10:19:04;52.43;;;23.00;;
7957;SDS011;4024;52.172;5.378;2022-12-10T10:21:39;49.60;;;22.93;;
7957;SDS011;4024;52.172;5.378;2022-12-10T10:24:06;51.13;;;25.83;;
7957;SDS011;4024;52.172;5.378;2022-12-10T10:26:38;52.87;;;24.83;;
7957;SDS011;4024;52.172;5.378;2022-12-10T10:29:05;55.43;;;25.40;;
7957;SDS011;4024;52.172;5.378;2022-12-10T10:31:34;51.80;;;23.77;;
7957;SDS011;4024;52.172;5.378;2022-12-10T10:34:03;55.23;;;23.53;;
7957;SDS011;4024;52.172;5.378;2022-12-10T10:36:37;51.60;;;24.70;;
7957;SDS011;4024;52.172;5.378;2022-12-10T10:39:08;50.87;;;22.70;;
7957;SDS011;4024;52.172;5.378;2022-12-10T10:41:52;51.40;;;23.07;;
7957;SDS011;4024;52.172;5.378;2022-12-10T10:44:20;54.70;;;23.50;;
7957;SDS011;4024;52.172;5.378;2022-12-10T10:46:48;52.47;;;23.30;;
7957;SDS011;4024;52.172;5.378;2022-12-10T10:49:23;47.53;;;21.73;;
7957;SDS011;4024;52.172;5.378;2022-12-10T10:51:58;48.73;;;23.57;;
7957;SDS011;4024;52.172;5.378;2022-12-10T10:57:08;47.60;;;24.43;;
7957;SDS011;4024;52.172;5.378;2022-12-10T10:59:42;49.07;;;23.67;;
7957;SDS011;4024;52.172;5.378;2022-12-10T11:04:54;52.83;;;24.80;;
7957;SDS011;4024;52.172;5.378;2022-12-10T11:07:34;51.93;;;24.00;;
7957;SDS011;4024;52.172;5.378;2022-12-10T11:10:03;60.50;;;24.93;;
7957;SDS011;4024;52.172;5.378;2022-12-10T11:12:40;55.03;;;25.57;;
7957;SDS011;4024;52.172;5.378;2022-12-10T11:17:55;54.30;;;23.60;;
7957;SDS011;4024;52.172;5.378;2022-12-10T11:20:29;51.07;;;24.47;;
7957;SDS011;4024;52.172;5.378;2022-12-10T11:23:01;48.43;;;24.53;;
7957;SDS011;4024;52.172;5.378;2022-12-10T11:28:10;49.50;;;25.30;;
7957;SDS011;4024;52.172;5.378;2022-12-10T11:31:16;52.83;;;25.67;;
7957;SDS011;4024;52.172;5.378;2022-12-10T11:34:03;50.67;;;24.00;;
7957;SDS011;4024;52.172;5.378;2022-12-10T11:36:39;51.60;;;25.03;;
7957;SDS011;4024;52.172;5.378;2022-12-10T11:42:04;50.60;;;23.93;;
7957;SDS011;4024;52.172;5.378;2022-12-10T11:50:03;52.50;;;22.53;;
7957;SDS011;4024;52.172;5.378;2022-12-10T12:15:03;51.00;;;24.30;;
7957;SDS011;4024;52.172;5.378;2022-12-10T12:17:45;49.03;;;23.73;;
7957;SDS011;4024;52.172;5.378;2022-12-10T12:20:30;46.27;;;23.80;;
7957;SDS011;4024;52.172;5.378;2022-12-10T12:23:02;46.30;;;22.77;;
7957;SDS011;4024;52.172;5.378;2022-12-10T12:26:06;46.97;;;22.57;;
7957;SDS011;4024;52.172;5.378;2022-12-10T12:28:39;47.03;;;23.60;;
7957;SDS011;4024;52.172;5.378;2022-12-10T12:31:09;42.77;;;21.73;;
7957;SDS011;4024;52.172;5.378;2022-12-10T12:34:03;44.13;;;22.90;;
7957;SDS011;4024;52.172;5.378;2022-12-10T12:36:33;56.73;;;24.33;;
7957;SDS011;4024;52.172;5.378;2022-12-10T12:44:35;49.80;;;24.10;;
7957;SDS011;4024;52.172;5.378;2022-12-10T12:47:16;53.43;;;24.53;;
7957;SDS011;4024;52.172;5.378;2022-12-10T12:50:04;56.80;;;24.00;;
7957;SDS011;4024;52.172;5.378;2022-12-10T12:52:57;54.50;;;24.27;;
7957;SDS011;4024;52.172;5.378;2022-12-10T13:00:51;58.63;;;26.37;;
7957;SDS011;4024;52.172;5.378;2022-12-10T13:06:14;55.27;;;26.37;;
7957;SDS011;4024;52.172;5.378;2022-12-10T13:08:43;55.73;;;24.97;;
7957;SDS011;4024;52.172;5.378;2022-12-10T13:11:18;63.80;;;27.23;;
7957;SDS011;4024;52.172;5.378;2022-12-10T13:14:03;63.40;;;26.43;;
7957;SDS011;4024;52.172;5.378;2022-12-10T13:24:20;52.33;;;25.73;;
7957;SDS011;4024;52.172;5.378;2022-12-10T13:33:16;58.10;;;27.53;;
7957;SDS011;4024;52.172;5.378;2022-12-10T13:35:55;55.27;;;25.80;;
7957;SDS011;4024;52.172;5.378;2022-12-10T13:38:24;60.37;;;25.20;;
7957;SDS011;4024;52.172;5.378;2022-12-10T13:41:02;54.67;;;24.17;;
7957;SDS011;4024;52.172;5.378;2022-12-10T13:43:56;48.93;;;24.33;;
7957;SDS011;4024;52.172;5.378;2022-12-10T13:46:53;51.70;;;25.23;;
7957;SDS011;4024;52.172;5.378;2022-12-10T13:49:29;51.00;;;24.40;;
7957;SDS011;4024;52.172;5.378;2022-12-10T13:52:07;49.97;;;24.50;;
7957;SDS011;4024;52.172;5.378;2022-12-10T13:57:41;53.13;;;25.13;;
7957;SDS011;4024;52.172;5.378;2022-12-10T14:00:19;55.37;;;24.70;;
7957;SDS011;4024;52.172;5.378;2022-12-10T14:08:38;51.77;;;24.67;;
7957;SDS011;4024;52.172;5.378;2022-12-10T14:11:16;55.90;;;25.73;;
7957;SDS011;4024;52.172;5.378;2022-12-10T14:13:47;51.80;;;25.30;;
7957;SDS011;4024;52.172;5.378;2022-12-10T14:16:18;51.00;;;25.47;;
7957;SDS011;4024;52.172;5.378;2022-12-10T14:18:58;54.87;;;25.70;;
7957;SDS011;4024;52.172;5.378;2022-12-10T14:21:34;61.57;;;26.93;;
7957;SDS011;4024;52.172;5.378;2022-12-10T14:24:04;60.70;;;27.60;;
7957;SDS011;4024;52.172;5.378;2022-12-10T14:26:31;61.30;;;27.40;;
7957;SDS011;4024;52.172;5.378;2022-12-10T14:29:01;55.17;;;27.47;;
7957;SDS011;4024;52.172;5.378;2022-12-10T14:31:31;62.10;;;26.90;;
7957;SDS011;4024;52.172;5.378;2022-12-10T14:34:08;58.77;;;25.90;;
7957;SDS011;4024;52.172;5.378;2022-12-10T14:36:39;57.90;;;26.87;;
7957;SDS011;4024;52.172;5.378;2022-12-10T14:39:12;62.27;;;26.80;;
7957;SDS011;4024;52.172;5.378;2022-12-10T14:41:40;62.97;;;27.03;;
7957;SDS011;4024;52.172;5.378;2022-12-10T14:44:06;59.90;;;25.70;;
7957;SDS011;4024;52.172;5.378;2022-12-10T14:46:37;57.10;;;26.07;;
7957;SDS011;4024;52.172;5.378;2022-12-10T14:49:02;60.70;;;26.13;;
7957;SDS011;4024;52.172;5.378;2022-12-10T14:51:33;56.53;;;26.20;;
7957;SDS011;4024;52.172;5.378;2022-12-10T14:54:01;59.23;;;25.50;;
7957;SDS011;4024;52.172;5.378;2022-12-10T14:56:32;61.90;;;25.30;;
7957;SDS011;4024;52.172;5.378;2022-12-10T15:01:41;58.60;;;26.60;;
7957;SDS011;4024;52.172;5.378;2022-12-10T15:04:16;63.97;;;26.80;;
7957;SDS011;4024;52.172;5.378;2022-12-10T15:06:43;62.87;;;26.47;;
7957;SDS011;4024;52.172;5.378;2022-12-10T15:09:13;61.40;;;27.37;;
7957;SDS011;4024;52.172;5.378;2022-12-10T15:11:54;61.20;;;27.93;;
7957;SDS011;4024;52.172;5.378;2022-12-10T15:14:20;79.90;;;28.87;;
7957;SDS011;4024;52.172;5.378;2022-12-10T15:16:48;66.97;;;29.50;;
7957;SDS011;4024;52.172;5.378;2022-12-10T15:21:43;70.07;;;28.93;;
7957;SDS011;4024;52.172;5.378;2022-12-10T15:24:15;67.17;;;27.97;;
7957;SDS011;4024;52.172;5.378;2022-12-10T15:26:44;75.10;;;29.70;;
7957;SDS011;4024;52.172;5.378;2022-12-10T15:29:15;59.33;;;25.90;;
7957;SDS011;4024;52.172;5.378;2022-12-10T15:31:47;77.17;;;29.00;;
7957;SDS011;4024;52.172;5.378;2022-12-10T15:34:14;74.10;;;29.80;;
7957;SDS011;4024;52.172;5.378;2022-12-10T15:36:50;71.07;;;29.90;;
7957;SDS011;4024;52.172;5.378;2022-12-10T15:39:20;69.97;;;29.23;;
7957;SDS011;4024;52.172;5.378;2022-12-10T15:42:50;72.93;;;30.30;;
7957;SDS011;4024;52.172;5.378;2022-12-10T15:45:26;67.40;;;25.33;;
7957;SDS011;4024;52.172;5.378;2022-12-10T15:48:12;72.93;;;30.50;;
7957;SDS011;4024;52.172;5.378;2022-12-10T15:50:39;63.60;;;27.23;;
7957;SDS011;4024;52.172;5.378;2022-12-10T15:53:14;60.90;;;27.13;;
7957;SDS011;4024;52.172;5.378;2022-12-10T15:55:46;66.73;;;27.97;;
7957;SDS011;4024;52.172;5.378;2022-12-10T15:58:12;72.87;;;29.43;;
7957;SDS011;4024;52.172;5.378;2022-12-10T16:00:39;82.13;;;29.20;;
7957;SDS011;4024;52.172;5.378;2022-12-10T16:03:09;64.10;;;27.77;;
7957;SDS011;4024;52.172;5.378;2022-12-10T16:05:37;69.30;;;27.73;;
7957;SDS011;4024;52.172;5.378;2022-12-10T16:08:26;69.10;;;28.50;;
7957;SDS011;4024;52.172;5.378;2022-12-10T16:10:54;67.33;;;26.87;;
7957;SDS011;4024;52.172;5.378;2022-12-10T16:13:25;73.27;;;26.60;;
7957;SDS011;4024;52.172;5.378;2022-12-10T16:15:55;61.03;;;27.43;;
7957;SDS011;4024;52.172;5.378;2022-12-10T16:18:24;75.93;;;27.80;;
7957;SDS011;4024;52.172;5.378;2022-12-10T16:20:50;67.77;;;27.23;;
7957;SDS011;4024;52.172;5.378;2022-12-10T16:23:16;72.17;;;29.40;;
7957;SDS011;4024;52.172;5.378;2022-12-10T16:25:42;58.17;;;26.03;;
7957;SDS011;4024;52.172;5.378;2022-12-10T16:28:12;61.20;;;26.97;;
7957;SDS011;4024;52.172;5.378;2022-12-10T16:30:43;65.47;;;26.13;;
7957;SDS011;4024;52.172;5.378;2022-12-10T16:33:16;63.70;;;26.23;;
7957;SDS011;4024;52.172;5.378;2022-12-10T16:35:43;53.30;;;23.30;;
7957;SDS011;4024;52.172;5.378;2022-12-10T16:38:09;64.47;;;25.00;;
7957;SDS011;4024;52.172;5.378;2022-12-10T16:40:35;53.47;;;24.40;;
7957;SDS011;4024;52.172;5.378;2022-12-10T16:43:01;52.93;;;24.30;;
7957;SDS011;4024;52.172;5.378;2022-12-10T16:45:31;62.53;;;23.13;;
7957;SDS011;4024;52.172;5.378;2022-12-10T16:47:59;63.60;;;26.37;;
7957;SDS011;4024;52.172;5.378;2022-12-10T16:50:26;52.30;;;22.93;;
7957;SDS011;4024;52.172;5.378;2022-12-10T16:52:52;60.47;;;24.83;;
7957;SDS011;4024;52.172;5.378;2022-12-10T16:55:21;57.07;;;24.87;;
7957;SDS011;4024;52.172;5.378;2022-12-10T16:57:48;56.73;;;24.40;;
7957;SDS011;4024;52.172;5.378;2022-12-10T17:00:17;52.20;;;24.13;;
7957;SDS011;4024;52.172;5.378;2022-12-10T17:02:45;62.67;;;24.07;;